Aston Cantlow, United Kingdom
Current Conditions -  °F | °C
As of 11:20 AM on Sunday 23 Nov 2014 (Local Time) from EGBB Reporting Station
Broken Clouds Broken Clouds  
Wind Chill: 42°   Ceiling: 1500
Heat Index: 46°   Visibility: 6mi
Dew Point: 45°   Wind: 9mph
Humidity: 93%   Direction: 310°NW
Pressure: 30.06"   Gusts: NA
Location:  52.29°N, 1.78°W
Report Text: EGBB 231120Z AUTO 31008KT 9999 SCT009/// BKN015/// BKN025/// 08/07 Q1018
Loading
Personal Weather Stations






























Interactive Weather Map New forecast layout! Learn more

10-Day Weather Forecast

Advertisements
Track Severe Weather on mobile